Time;durP1;ratioP1;P1;durP2;ratioP2;P2;SDS_P1;SDS_P2;PMS_P1;PMS_P2;Temp;Humidity;BMP_temperature;BMP_pressure;BME280_temperature;BME280_humidity;BME280_pressure;Samples;Min_cycle;Max_cycle;Signal;HPM_P1;HPM_P2
2022/11/19 00:01:06;;;;;;;41.88;15.55;;;;;;;4.18;100.00;100795.75;4991939;28;20671;-86
2022/11/19 00:03:33;;;;;;;43.83;16.80;;;;;;;4.12;100.00;100800.88;5001147;28;20030;-87
2022/11/19 00:06:12;;;;;;;45.05;16.70;;;;;;;4.10;100.00;100794.88;5006174;28;20057;-87
2022/11/19 00:08:38;;;;;;;41.58;16.58;;;;;;;4.01;100.00;100794.88;5007321;28;20037;-87
2022/11/19 00:11:07;;;;;;;44.80;16.63;;;;;;;3.93;100.00;100795.72;5008601;28;20021;-87
2022/11/19 00:13:33;;;;;;;44.50;15.65;;;;;;;3.95;100.00;100800.88;5009214;28;20022;-87
2022/11/19 00:16:10;;;;;;;46.55;16.67;;;;;;;3.93;100.00;100803.41;5007926;28;20032;-87
2022/11/19 00:18:35;;;;;;;50.30;17.15;;;;;;;3.87;100.00;100818.78;5009080;28;20030;-87
2022/11/19 00:21:05;;;;;;;47.45;16.42;;;;;;;3.86;100.00;100819.63;5007212;28;20033;-87
2022/11/19 00:23:30;;;;;;;47.60;17.50;;;;;;;3.83;100.00;100817.03;5005005;28;20022;-86
2022/11/19 00:25:55;;;;;;;48.92;17.75;;;;;;;3.83;100.00;100819.59;5006930;28;20171;-86
2022/11/19 00:28:21;;;;;;;42.30;15.30;;;;;;;3.80;100.00;100817.06;5008723;28;20117;-86
2022/11/19 00:30:46;;;;;;;48.58;17.10;;;;;;;3.76;100.00;100825.56;5009488;28;20417;-87
2022/11/19 00:33:11;;;;;;;41.50;14.38;;;;;;;3.76;100.00;100817.88;5008713;28;20046;-87
2022/11/19 00:35:37;;;;;;;42.72;16.10;;;;;;;3.75;100.00;100821.31;5007252;28;20101;-87
2022/11/19 00:38:02;;;;;;;44.92;15.43;;;;;;;3.77;100.00;100817.03;5007533;28;20167;-87
2022/11/19 00:40:27;;;;;;;36.35;13.52;;;;;;;3.77;100.00;100813.59;5008705;28;20029;-87
2022/11/19 00:45:36;;;;;;;46.67;16.13;;;;;;;3.64;100.00;100825.53;5008749;28;20091;-86
2022/11/19 00:48:02;;;;;;;44.33;16.00;;;;;;;3.63;100.00;100823.81;5008239;28;20029;-86
2022/11/19 00:50:27;;;;;;;51.22;15.80;;;;;;;3.63;100.00;100826.38;5011796;28;20038;-86
2022/11/19 00:52:52;;;;;;;48.05;15.40;;;;;;;3.65;100.00;100824.69;5006655;28;20494;-86
2022/11/19 00:55:18;;;;;;;45.20;16.15;;;;;;;3.69;100.00;100825.53;5008022;28;20025;-86
2022/11/19 00:57:43;;;;;;;43.55;16.15;;;;;;;3.68;100.00;100834.97;5008701;28;20429;-86
2022/11/19 01:00:09;;;;;;;50.25;16.85;;;;;;;3.64;100.00;100827.22;5006955;28;20108;-86
2022/11/19 01:02:34;;;;;;;48.40;17.45;;;;;;;3.64;100.00;100830.66;5007385;28;20133;-86
2022/11/19 01:05:00;;;;;;;40.92;15.30;;;;;;;3.55;100.00;100835.72;5008210;28;20133;-87
2022/11/19 01:07:25;;;;;;;43.60;14.75;;;;;;;3.47;100.00;100832.28;5006577;28;20390;-87
2022/11/19 01:09:50;;;;;;;40.92;14.57;;;;;;;3.49;100.00;100838.25;5008711;28;20492;-87
2022/11/19 01:12:15;;;;;;;35.33;12.75;;;;;;;3.46;100.00;100831.44;5005793;28;20030;-87
2022/11/19 01:14:41;;;;;;;45.95;15.35;;;;;;;3.42;100.00;100844.19;5009354;28;20038;-87
2022/11/19 01:17:06;;;;;;;43.65;15.52;;;;;;;3.39;100.00;100841.66;5008376;28;20075;-87
2022/11/19 01:19:31;;;;;;;38.58;14.07;;;;;;;3.43;100.00;100853.59;4990320;28;20072;-88
2022/11/19 01:21:57;;;;;;;41.83;15.20;;;;;;;3.44;100.00;100856.19;5006699;28;20327;-87
2022/11/19 01:24:22;;;;;;;36.03;14.20;;;;;;;3.41;100.00;100852.75;5005282;28;20054;-87
2022/11/19 01:26:47;;;;;;;47.75;15.70;;;;;;;3.37;100.00;100851.88;4991006;28;20026;-87
2022/11/19 01:29:13;;;;;;;41.45;13.75;;;;;;;3.34;100.00;100853.56;5008014;28;20026;-86
2022/11/19 01:31:38;;;;;;;35.33;13.63;;;;;;;3.28;100.00;100853.50;5008010;28;20075;-85
2022/11/19 01:34:03;;;;;;;40.25;14.07;;;;;;;3.27;100.00;100856.94;5007608;28;20472;-86
2022/11/19 01:36:29;;;;;;;33.40;12.70;;;;;;;3.24;100.00;100862.91;5009050;28;20549;-86
2022/11/19 01:38:55;;;;;;;29.88;11.77;;;;;;;3.23;100.00;100868.84;5007966;28;20026;-87
2022/11/19 01:41:29;;;;;;;28.90;11.52;;;;;;;3.17;100.00;100868.81;5006957;28;20026;-85
2022/11/19 01:43:57;;;;;;;;;;;;;;;3.17;100.00;100876.50;5006404;28;20053;-87
2022/11/19 01:46:25;;;;;;;31.92;12.23;;;;;;;3.10;100.00;100872.19;5007529;28;20008;-85
2022/11/19 01:49:13;;;;;;;33.13;12.50;;;;;;;3.09;100.00;100880.72;5002098;28;20030;-86
2022/11/19 01:51:47;;;;;;;33.40;12.93;;;;;;;3.07;100.00;100877.31;5005865;28;20045;-87
2022/11/19 01:54:21;;;;;;;;;;;;;;;3.14;100.00;100881.59;5009994;28;20025;-86
2022/11/19 01:56:46;;;;;;;30.58;11.00;;;;;;;3.04;100.00;100885.81;5010949;28;20188;-87
2022/11/19 01:59:15;;;;;;;39.15;14.10;;;;;;;3.02;100.00;100886.63;5011715;28;20024;-86
2022/11/19 02:01:42;;;;;;;37.85;14.07;;;;;;;3.02;100.00;100896.88;5009260;28;20112;-86
2022/11/19 02:04:09;;;;;;;36.70;13.70;;;;;;;3.02;100.00;100892.63;5009300;28;20056;-85
2022/11/19 02:06:34;;;;;;;41.17;14.55;;;;;;;3.04;100.00;100896.06;4994311;28;20029;-85
2022/11/19 02:09:00;;;;;;;36.83;12.98;;;;;;;3.06;100.00;100896.06;5008876;28;20022;-85
2022/11/19 02:11:53;;;;;;;40.53;14.32;;;;;;;3.07;100.00;100906.31;5009685;28;20026;-85
2022/11/19 02:14:35;;;;;;;38.33;14.05;;;;;;;3.11;100.00;100904.63;5008092;28;20051;-85
2022/11/19 02:17:13;;;;;;;43.53;15.75;;;;;;;3.13;100.00;100908.94;5010317;28;20029;-85
2022/11/19 02:20:17;;;;;;;38.13;14.27;;;;;;;3.02;100.00;100907.97;5008120;28;20408;-86
2022/11/19 02:23:13;;;;;;;37.72;15.40;;;;;;;2.99;100.00;100918.22;5006939;28;20026;-86
2022/11/19 02:25:38;;;;;;;30.10;11.98;;;;;;;2.93;100.00;100913.03;5009471;28;20034;-85
2022/11/19 02:28:19;;;;;;;35.95;14.77;;;;;;;2.83;100.00;100920.63;5010840;28;20029;-85
2022/11/19 02:30:48;;;;;;;33.63;13.50;;;;;;;2.72;100.00;100911.16;5008690;28;20038;-84
2022/11/19 02:33:28;;;;;;;34.20;14.82;;;;;;;2.67;100.00;100905.09;5009303;28;20028;-86
2022/11/19 02:36:06;;;;;;;36.60;13.52;;;;;;;2.66;100.00;100912.78;5009377;28;20037;-86
2022/11/19 02:38:44;;;;;;;36.42;13.68;;;;;;;2.65;100.00;100905.97;5005302;28;20093;-86
2022/11/19 02:41:33;;;;;;;33.28;12.45;;;;;;;2.62;100.00;100911.03;5009986;28;20026;-86
2022/11/19 02:46:56;;;;;;;35.97;14.27;;;;;;;2.49;100.00;100919.44;5009762;28;20056;-86
2022/11/19 02:49:27;;;;;;;29.13;11.98;;;;;;;2.47;100.00;100919.41;4992116;28;20058;-86
2022/11/19 02:51:53;;;;;;;35.28;13.60;;;;;;;2.43;100.00;100922.78;5010410;28;20399;-86
2022/11/19 02:54:18;;;;;;;26.58;10.77;;;;;;;2.41;100.00;100921.03;5009860;28;20468;-87
2022/11/19 02:56:51;;;;;;;35.65;13.70;;;;;;;2.33;100.00;100921.81;5008539;28;20025;-86
2022/11/19 03:04:54;;;;;;;40.30;14.63;;;;;;;2.29;100.00;100914.09;5008320;28;20088;-87
2022/11/19 03:07:20;;;;;;;40.83;15.80;;;;;;;2.26;100.00;100914.91;5009996;28;20040;-88
2022/11/19 03:09:53;;;;;;;35.05;13.15;;;;;;;2.25;100.00;100927.72;5013070;28;20044;-86
2022/11/19 03:12:33;;;;;;;39.85;14.60;;;;;;;2.20;100.00;100931.91;5008170;28;20109;-86
2022/11/19 03:18:01;;;;;;;36.30;14.07;;;;;;;2.11;100.00;100927.56;5009180;28;20041;-85
2022/11/19 03:20:37;;;;;;;37.65;14.00;;;;;;;2.07;100.00;100933.44;5013245;28;20105;-86
2022/11/19 03:23:17;;;;;;;38.45;13.38;;;;;;;2.05;100.00;100931.75;5008076;28;20032;-86
2022/11/19 03:25:49;;;;;;;39.00;13.20;;;;;;;2.02;100.00;100937.66;5010035;28;20285;-86
2022/11/19 03:28:21;;;;;;;43.38;14.73;;;;;;;2.01;100.00;100935.06;5008886;28;20157;-87
2022/11/19 03:30:48;;;;;;;44.80;14.98;;;;;;;1.97;100.00;100941.88;5011881;28;20444;-87
2022/11/19 03:33:20;;;;;;;42.47;14.52;;;;;;;1.98;100.00;100939.31;5014373;28;20028;-85
2022/11/19 03:35:51;;;;;;;42.00;15.13;;;;;;;2.03;100.00;100948.75;5019590;28;20060;-87
2022/11/19 03:38:25;;;;;;;45.53;16.25;;;;;;;1.99;100.00;100950.38;4994215;28;20041;-87
2022/11/19 03:40:53;;;;;;;42.30;14.52;;;;;;;1.99;100.00;100941.03;5014355;28;20030;-86
2022/11/19 03:43:22;;;;;;;41.17;15.27;;;;;;;1.98;100.00;100946.09;5009573;28;20025;-86
2022/11/19 03:45:51;;;;;;;41.63;15.20;;;;;;;1.97;100.00;100944.41;5008993;28;20029;-87
2022/11/19 03:48:21;;;;;;;39.85;14.38;;;;;;;1.88;100.00;100940.03;5006645;28;20481;-87
2022/11/19 03:50:51;;;;;;;40.15;15.15;;;;;;;1.91;100.00;100941.78;5014612;28;20037;-87
2022/11/19 03:53:18;;;;;;;45.78;15.40;;;;;;;1.91;100.00;100947.72;5008466;28;20032;-87
2022/11/19 03:55:56;;;;;;;44.63;14.95;;;;;;;1.91;100.00;100947.72;5009270;28;20127;-87
2022/11/19 03:58:26;;;;;;;43.83;15.38;;;;;;;1.94;100.00;100945.22;5009440;28;20029;-87
2022/11/19 04:00:52;;;;;;;46.42;16.55;;;;;;;1.96;100.00;100941.00;5013791;28;20408;-87
2022/11/19 04:03:18;;;;;;;48.72;15.85;;;;;;;1.99;100.00;100950.38;5005207;28;22016;-87
2022/11/19 04:05:43;;;;;;;41.20;14.82;;;;;;;2.01;100.00;100955.53;5009700;28;20045;-86
2022/11/19 04:08:08;;;;;;;42.40;15.60;;;;;;;2.00;100.00;100952.13;5006676;28;20435;-88
2022/11/19 04:10:34;;;;;;;45.28;15.85;;;;;;;2.01;100.00;100953.84;5008341;28;20030;-86
2022/11/19 04:12:59;;;;;;;44.25;15.70;;;;;;;1.98;100.00;100958.88;5008782;28;20033;-87
2022/11/19 04:15:24;;;;;;;45.17;16.38;;;;;;;1.94;100.00;100967.38;5008098;28;20025;-86
2022/11/19 04:17:50;;;;;;;51.97;19.35;;;;;;;1.87;100.00;100966.44;5007823;28;20096;-86
2022/11/19 04:20:15;;;;;;;46.15;16.42;;;;;;;1.85;100.00;100969.78;5010188;28;20033;-87
2022/11/19 04:22:41;;;;;;;42.53;15.43;;;;;;;1.79;100.00;100964.59;5008930;28;20109;-86
2022/11/19 04:25:07;;;;;;;35.97;13.30;;;;;;;1.81;100.00;100978.28;5008263;28;20026;-85
2022/11/19 04:27:32;;;;;;;48.65;17.92;;;;;;;1.74;100.00;100981.56;5008492;28;20045;-85
2022/11/19 04:29:57;;;;;;;39.38;14.70;;;;;;;1.68;100.00;100981.50;5010264;28;20355;-86
2022/11/19 04:32:23;;;;;;;49.25;17.40;;;;;;;1.61;100.00;100975.44;5006816;28;20057;-85
2022/11/19 04:34:48;;;;;;;45.95;18.00;;;;;;;1.66;100.00;100985.72;5008852;28;20447;-86
2022/11/19 04:37:13;;;;;;;43.15;14.85;;;;;;;1.63;100.00;100991.66;5008152;28;20029;-87
2022/11/19 04:39:39;;;;;;;47.42;16.77;;;;;;;1.61;100.00;100993.31;5008519;28;20124;-85
2022/11/19 04:42:04;;;;;;;49.42;18.25;;;;;;;1.63;100.00;100989.09;4990748;28;20373;-85
2022/11/19 04:44:30;;;;;;;44.10;15.75;;;;;;;1.62;100.00;100996.72;5008052;28;20553;-85
2022/11/19 04:46:55;;;;;;;53.47;18.83;;;;;;;1.57;100.00;100994.09;5007506;28;20041;-86
2022/11/19 04:49:20;;;;;;;47.22;17.52;;;;;;;1.54;100.00;100997.47;5007458;28;20033;-86
2022/11/19 04:51:46;;;;;;;50.42;18.02;;;;;;;1.54;100.00;101000.03;5005966;28;20026;-86
2022/11/19 04:54:12;;;;;;;49.75;17.13;;;;;;;1.59;100.00;101000.09;5008489;28;20515;-87
2022/11/19 04:56:37;;;;;;;48.53;16.90;;;;;;;1.54;100.00;101000.03;5006804;28;20025;-86
2022/11/19 04:59:03;;;;;;;54.17;19.02;;;;;;;1.55;100.00;101000.88;5008297;28;20018;-77
2022/11/19 05:01:28;;;;;;;41.50;16.85;;;;;;;1.57;100.00;100997.50;5006207;28;20097;-78
2022/11/19 05:03:54;;;;;;;48.72;18.38;;;;;;;1.50;100.00;100999.97;5008200;28;20113;-78
2022/11/19 05:06:19;;;;;;;49.08;18.80;;;;;;;1.54;100.00;101004.28;5007548;28;20060;-78
2022/11/19 05:08:44;;;;;;;45.92;16.08;;;;;;;1.52;100.00;101006.78;5007246;28;20032;-78
2022/11/19 05:11:10;;;;;;;50.28;19.13;;;;;;;1.47;100.00;101008.44;5014896;28;20035;-78
2022/11/19 05:13:35;;;;;;;45.83;17.17;;;;;;;1.54;100.00;101006.81;5007826;28;20290;-78
2022/11/19 05:16:01;;;;;;;44.42;17.02;;;;;;;1.48;100.00;101015.25;5006025;28;20358;-78
2022/11/19 05:18:27;;;;;;;46.50;17.95;;;;;;;1.47;100.00;101016.09;5007071;28;20046;-78
2022/11/19 05:20:52;;;;;;;49.22;18.70;;;;;;;1.54;100.00;101024.72;5008052;28;20042;-78
2022/11/19 05:23:17;;;;;;;51.72;19.08;;;;;;;1.55;100.00;101026.44;5008104;28;20018;-78
2022/11/19 05:25:43;;;;;;;48.45;18.00;;;;;;;1.54;100.00;101033.22;5011513;28;20188;-77
2022/11/19 05:28:08;;;;;;;47.80;17.67;;;;;;;1.57;100.00;101040.94;5011480;28;20439;-78
2022/11/19 05:30:34;;;;;;;48.45;17.77;;;;;;;1.50;100.00;101051.06;5015841;28;20025;-78
2022/11/19 05:32:59;;;;;;;49.22;18.10;;;;;;;1.52;100.00;101046.81;5009700;28;20036;-78
2022/11/19 05:35:24;;;;;;;48.10;18.23;;;;;;;1.49;100.00;101051.88;5011026;28;20025;-78
2022/11/19 05:37:50;;;;;;;49.28;19.02;;;;;;;1.47;100.00;101046.75;5011517;28;20030;-78
2022/11/19 05:40:16;;;;;;;51.75;20.27;;;;;;;1.47;100.00;101051.84;5011155;28;20021;-78
2022/11/19 05:42:41;;;;;;;36.78;14.02;;;;;;;1.42;100.00;101058.59;4990181;28;20041;-78
2022/11/19 05:45:07;;;;;;;50.78;18.48;;;;;;;1.40;100.00;101054.28;5011876;28;20022;-78
2022/11/19 05:47:33;;;;;;;47.80;19.20;;;;;;;1.45;100.00;101067.97;5008162;28;20038;-77
2022/11/19 05:49:58;;;;;;;47.63;18.05;;;;;;;1.35;100.00;101066.09;5012747;28;20492;-78
2022/11/19 05:52:24;;;;;;;55.90;20.15;;;;;;;1.34;100.00;101070.34;5014433;28;20030;-77
2022/11/19 05:54:49;;;;;;;48.15;17.60;;;;;;;1.33;100.00;101060.97;5011162;28;20038;-78
2022/11/19 05:57:14;;;;;;;45.63;17.95;;;;;;;1.36;100.00;101062.72;5011169;28;20421;-77
2022/11/19 05:59:40;;;;;;;47.88;17.40;;;;;;;1.29;100.00;101063.44;4994552;28;20545;-84
2022/11/19 06:02:05;;;;;;;52.15;18.15;;;;;;;1.27;100.00;101060.88;5018868;28;20022;-85
2022/11/19 06:04:30;;;;;;;50.88;19.13;;;;;;;1.29;100.00;101063.44;5009228;28;20050;-84
2022/11/19 06:06:56;;;;;;;53.45;19.85;;;;;;;1.27;100.00;101062.56;5010994;28;20486;-84
2022/11/19 06:09:21;;;;;;;53.45;20.70;;;;;;;1.32;100.00;101076.25;4998836;28;20060;-85
2022/11/19 06:11:46;;;;;;;56.70;21.58;;;;;;;1.28;100.00;101077.91;5008914;28;20100;-84
2022/11/19 06:14:13;;;;;;;50.58;19.45;;;;;;;1.27;100.00;101073.63;5005203;28;20041;-85
2022/11/19 06:16:38;;;;;;;47.30;18.02;;;;;;;1.31;100.00;101075.38;5006732;28;20079;-85
2022/11/19 06:19:04;;;;;;;51.80;20.08;;;;;;;1.29;100.00;101074.53;5010605;28;20439;-84
2022/11/19 06:21:29;;;;;;;51.17;19.58;;;;;;;1.31;100.00;101089.84;5010568;28;20030;-84
2022/11/19 06:23:54;;;;;;;56.17;21.52;;;;;;;1.30;100.00;101083.88;5007329;28;20053;-85
2022/11/19 06:26:27;;;;;;;51.63;19.80;;;;;;;1.33;100.00;101086.50;5008325;28;20026;-84
2022/11/19 06:28:54;;;;;;;60.22;20.40;;;;;;;1.33;100.00;101091.59;4991204;28;20046;-84
2022/11/19 06:31:20;;;;;;;56.03;20.48;;;;;;;1.31;100.00;101098.38;5005466;28;20030;-85
2022/11/19 06:33:46;;;;;;;53.40;20.05;;;;;;;1.30;100.00;101101.75;5008471;28;20033;-84
2022/11/19 06:36:12;;;;;;;56.53;20.40;;;;;;;1.28;100.00;101105.13;5001305;28;20026;-84
2022/11/19 06:38:37;;;;;;;49.30;17.52;;;;;;;1.29;100.00;101112.81;5009686;28;20057;-84
2022/11/19 06:41:02;;;;;;;48.55;19.73;;;;;;;1.26;100.00;101128.06;5009337;28;20022;-85
2022/11/19 06:43:28;;;;;;;54.45;20.20;;;;;;;1.26;100.00;101127.22;5008910;28;20080;-85
2022/11/19 06:45:53;;;;;;;52.63;18.55;;;;;;;1.23;100.00;101125.44;5008698;28;20080;-86
2022/11/19 06:48:19;;;;;;;54.38;19.48;;;;;;;1.23;100.00;101129.72;5008940;28;20121;-85
2022/11/19 06:50:44;;;;;;;49.58;18.15;;;;;;;1.23;100.00;101134.84;5015482;28;20056;-84
2022/11/19 06:53:09;;;;;;;56.88;20.27;;;;;;;1.22;100.00;101138.22;5010890;28;20404;-84
2022/11/19 06:55:35;;;;;;;52.88;19.63;;;;;;;1.24;100.00;101134.84;5010928;28;20030;-84
2022/11/19 06:58:02;;;;;;;56.30;21.33;;;;;;;1.27;100.00;101127.25;5012268;28;20022;-85
2022/11/19 07:00:27;;;;;;;60.83;21.30;;;;;;;1.26;100.00;101135.75;5000569;28;20492;-85
2022/11/19 07:02:52;;;;;;;55.53;19.38;;;;;;;1.22;100.00;101133.09;5008650;28;20069;-84
2022/11/19 07:05:18;;;;;;;57.28;20.65;;;;;;;1.24;100.00;101144.19;5011301;28;20054;-84
2022/11/19 07:07:43;;;;;;;54.60;19.58;;;;;;;1.23;100.00;101142.50;5008658;28;20041;-83
2022/11/19 07:10:08;;;;;;;57.33;20.63;;;;;;;1.24;100.00;101139.94;5009201;28;20108;-83
2022/11/19 07:12:34;;;;;;;51.17;18.10;;;;;;;1.26;100.00;101155.31;5009696;28;20097;-84
2022/11/19 07:14:59;;;;;;;40.58;15.57;;;;;;;1.24;100.00;101137.38;5011994;28;20088;-84
2022/11/19 07:17:25;;;;;;;54.60;20.02;;;;;;;1.24;100.00;101142.50;5008780;28;20057;-83
2022/11/19 07:19:50;;;;;;;61.17;21.15;;;;;;;1.24;100.00;101155.25;5007132;28;20025;-83
2022/11/19 07:22:15;;;;;;;57.85;21.23;;;;;;;1.25;100.00;101148.47;5006556;28;20109;-83
2022/11/19 07:24:41;;;;;;;58.13;20.27;;;;;;;1.27;100.00;101159.56;5004047;28;20065;-83
2022/11/19 07:27:06;;;;;;;55.30;19.80;;;;;;;1.30;100.00;101155.38;5004666;28;20026;-83
2022/11/19 07:29:31;;;;;;;59.22;20.42;;;;;;;1.31;100.00;101156.25;4987038;28;20033;-83
2022/11/19 07:31:56;;;;;;;50.65;20.13;;;;;;;1.35;100.00;101153.78;5005290;28;20531;-84
2022/11/19 07:34:22;;;;;;;60.08;20.45;;;;;;;1.30;100.00;101160.47;5007069;28;20083;-85
2022/11/19 07:36:48;;;;;;;61.38;20.63;;;;;;;1.27;100.00;101164.69;5008188;28;20065;-84
2022/11/19 07:39:13;;;;;;;52.33;19.73;;;;;;;1.27;100.00;101167.25;5009840;28;20038;-84
2022/11/19 07:44:22;;;;;;;53.80;18.83;;;;;;;1.29;100.00;101175.81;5006257;28;20056;-84
2022/11/19 07:46:48;;;;;;;57.03;20.52;;;;;;;1.31;100.00;101176.66;5003331;28;20415;-84
2022/11/19 07:49:13;;;;;;;51.40;19.23;;;;;;;1.32;100.00;101178.41;5001971;28;20029;-84
2022/11/19 07:51:39;;;;;;;52.90;19.70;;;;;;;1.35;100.00;101186.13;4997259;28;20408;-84
2022/11/19 07:54:05;;;;;;;58.08;21.00;;;;;;;1.37;100.00;101181.88;5003790;28;20030;-84
2022/11/19 07:56:30;;;;;;;57.15;21.08;;;;;;;1.37;100.00;101180.19;5008776;28;20048;-83
2022/11/19 07:58:58;;;;;;;52.53;19.45;;;;;;;1.37;100.00;101187.84;5009358;28;20029;-83
2022/11/19 08:01:24;;;;;;;39.47;16.73;;;;;;;1.39;100.00;101187.91;5011533;28;20069;-85
2022/11/19 08:03:50;;;;;;;53.67;20.02;;;;;;;1.35;100.00;101186.13;5009101;28;20056;-83
2022/11/19 08:06:18;;;;;;;52.03;19.23;;;;;;;1.31;100.00;101192.00;5005718;28;20034;-82
2022/11/19 08:08:44;;;;;;;45.95;18.20;;;;;;;1.29;100.00;101191.13;5009088;28;20072;-82
2022/11/19 08:11:11;;;;;;;51.05;19.88;;;;;;;1.30;100.00;101197.94;5009595;28;20040;-82
2022/11/19 08:13:38;;;;;;;54.15;19.00;;;;;;;1.30;100.00;101200.50;5010201;28;20022;-82
2022/11/19 08:16:09;;;;;;;53.20;19.25;;;;;;;1.32;100.00;101211.59;5010553;28;20029;-82
2022/11/19 08:18:34;;;;;;;51.20;19.27;;;;;;;1.33;100.00;101219.28;5010757;28;20033;-82
2022/11/19 08:21:08;;;;;;;42.20;17.20;;;;;;;1.38;100.00;101221.91;5006915;28;20102;-83
2022/11/19 08:23:34;;;;;;;55.47;20.38;;;;;;;1.36;100.00;101215.94;5010052;28;20022;-83
2022/11/19 08:26:00;;;;;;;55.17;20.33;;;;;;;1.35;100.00;101211.66;5008270;28;20033;-83
2022/11/19 08:28:27;;;;;;;49.67;19.80;;;;;;;1.38;100.00;101209.16;5010172;28;20030;-77
2022/11/19 08:30:52;;;;;;;44.97;16.80;;;;;;;1.37;100.00;101215.09;5002257;28;20034;-77
2022/11/19 08:33:18;;;;;;;51.97;18.58;;;;;;;1.31;100.00;101222.63;5004258;28;20079;-75
2022/11/19 08:35:43;;;;;;;45.28;16.85;;;;;;;1.34;100.00;101221.00;5005034;28;20061;-75
2022/11/19 08:38:09;;;;;;;47.33;18.35;;;;;;;1.33;100.00;101220.97;4999852;28;20021;-75
2022/11/19 08:40:34;;;;;;;49.50;18.63;;;;;;;1.35;100.00;101234.66;5006591;28;20396;-75
2022/11/19 08:43:00;;;;;;;51.97;19.02;;;;;;;1.37;100.00;101231.28;5003525;28;20061;-75
2022/11/19 08:45:36;;;;;;;46.95;16.58;;;;;;;1.40;100.00;101233.91;5005140;28;20342;-75
2022/11/19 08:48:04;;;;;;;49.90;19.30;;;;;;;1.40;100.00;101233.91;5003789;28;20041;-75
2022/11/19 08:50:30;;;;;;;51.47;18.95;;;;;;;1.40;100.00;101236.44;4988860;28;20044;-75
2022/11/19 08:52:57;;;;;;;51.80;18.27;;;;;;;1.37;100.00;101236.38;5006732;28;20034;-75
2022/11/19 08:55:24;;;;;;;47.97;17.27;;;;;;;1.40;100.00;101244.13;5003576;28;20026;-76
2022/11/19 08:57:49;;;;;;;50.20;18.58;;;;;;;1.39;100.00;101241.53;5006443;28;20049;-75
2022/11/19 09:00:16;;;;;;;53.72;19.98;;;;;;;1.37;100.00;101243.19;5004603;28;20034;-75
2022/11/19 09:02:41;;;;;;;51.17;18.13;;;;;;;1.38;100.00;101240.66;5011388;28;20056;-74
2022/11/19 09:05:07;;;;;;;47.60;17.70;;;;;;;1.37;100.00;101243.19;5005569;28;20122;-75
2022/11/19 09:07:32;;;;;;;39.28;15.57;;;;;;;1.44;100.00;101245.88;5004646;28;20029;-75
2022/11/19 09:09:57;;;;;;;49.55;18.05;;;;;;;1.40;100.00;101249.22;5007893;28;20068;-80
2022/11/19 09:12:23;;;;;;;50.60;19.48;;;;;;;1.37;100.00;101250.84;5009880;28;20117;-81
2022/11/19 09:14:49;;;;;;;50.05;18.27;;;;;;;1.37;100.00;101255.94;5008130;28;20096;-82
2022/11/19 09:17:14;;;;;;;40.08;15.07;;;;;;;1.38;100.00;101250.00;5008528;28;20026;-81
2022/11/19 09:19:40;;;;;;;49.05;18.67;;;;;;;1.34;100.00;101253.34;5009646;28;20025;-80
2022/11/19 09:22:05;;;;;;;46.15;15.80;;;;;;;1.38;100.00;101261.09;5006413;28;21349;-81
2022/11/19 09:24:30;;;;;;;52.25;19.65;;;;;;;1.39;100.00;101260.25;5008187;28;20116;-81
2022/11/19 09:26:56;;;;;;;60.58;22.85;;;;;;;1.38;100.00;101255.97;5009249;28;20022;-80
2022/11/19 09:29:21;;;;;;;58.75;21.90;;;;;;;1.38;100.00;101260.22;5003671;28;20045;-81
2022/11/19 09:31:46;;;;;;;49.92;19.55;;;;;;;1.41;100.00;101266.28;5005659;28;20060;-81
2022/11/19 09:34:12;;;;;;;48.58;18.17;;;;;;;1.42;100.00;101259.47;5004833;28;20022;-81
2022/11/19 09:36:37;;;;;;;43.72;16.30;;;;;;;1.41;100.00;101270.50;5007074;28;20034;-81
2022/11/19 09:39:02;;;;;;;52.65;18.75;;;;;;;1.42;100.00;101267.13;5006256;28;20026;-81
2022/11/19 09:41:34;;;;;;;66.10;21.48;;;;;;;1.46;100.00;101269.78;5008659;28;20021;-80
2022/11/19 09:44:11;;;;;;;45.03;16.70;;;;;;;1.53;100.00;101274.16;5010491;28;20450;-78
2022/11/19 09:46:55;;;;;;;55.47;20.58;;;;;;;1.51;100.00;101288.59;5000519;28;20315;-78
2022/11/19 09:49:28;;;;;;;48.50;18.52;;;;;;;1.57;100.00;101290.41;5001670;28;20026;-79
2022/11/19 09:52:02;;;;;;;46.30;17.08;;;;;;;1.57;100.00;101290.41;5004598;28;20144;-78
2022/11/19 09:54:27;;;;;;;44.70;15.95;;;;;;;1.61;100.00;101296.47;5005378;28;20026;-78
2022/11/19 09:56:54;;;;;;;46.50;16.75;;;;;;;1.69;100.00;101298.34;5006516;28;20045;-79
2022/11/19 09:59:38;;;;;;;36.28;14.43;;;;;;;1.74;100.00;101303.53;5009366;28;20029;-78
2022/11/19 10:02:18;;;;;;;41.35;16.20;;;;;;;1.59;100.00;101304.09;5005346;28;20073;-79
2022/11/19 10:04:45;;;;;;;44.38;17.15;;;;;;;1.55;100.00;101302.31;5007756;28;20088;-78
2022/11/19 10:07:29;;;;;;;36.65;14.40;;;;;;;1.58;100.00;101304.91;5009897;28;20278;-79
2022/11/19 10:10:18;;;;;;;47.47;17.15;;;;;;;1.55;100.00;101313.38;5001650;28;20045;-79
2022/11/19 10:13:10;;;;;;;42.47;16.63;;;;;;;1.48;100.00;101314.09;5006113;28;20113;-78
2022/11/19 10:16:14;;;;;;;45.63;16.25;;;;;;;1.49;100.00;101307.28;5003885;28;20476;-78
2022/11/19 10:19:08;;;;;;;43.15;15.82;;;;;;;1.45;100.00;101316.56;5000216;28;20571;-80
2022/11/19 10:21:53;;;;;;;42.50;16.25;;;;;;;1.41;100.00;101309.69;5006131;28;20033;-79
2022/11/19 10:24:22;;;;;;;38.17;14.60;;;;;;;1.41;100.00;101309.69;5009561;28;20121;-79
2022/11/19 10:27:09;;;;;;;40.80;16.08;;;;;;;1.39;100.00;101315.59;5003475;28;20574;-79
2022/11/19 10:29:37;;;;;;;44.33;16.95;;;;;;;1.28;100.00;101315.38;5004711;28;20026;-79
2022/11/19 10:32:16;;;;;;;41.28;15.98;;;;;;;1.28;100.00;101317.06;4988562;28;20029;-80
2022/11/19 10:34:42;;;;;;;42.03;15.05;;;;;;;1.17;100.00;101314.25;4999346;28;20030;-79
2022/11/19 10:37:13;;;;;;;44.72;16.42;;;;;;;1.26;100.00;101319.56;5005003;28;20435;-79
2022/11/19 10:39:42;;;;;;;40.25;14.60;;;;;;;1.30;100.00;101330.72;5003450;28;20037;-80
2022/11/19 10:42:19;;;;;;;40.38;15.80;;;;;;;1.29;100.00;101326.44;5003810;28;20642;-79
2022/11/19 10:45:14;;;;;;;33.90;13.77;;;;;;;1.30;100.00;101330.72;5002245;28;20532;-80
2022/11/19 10:47:46;;;;;;;36.45;12.00;;;;;;;1.21;100.00;101330.53;5005016;28;20113;-80
2022/11/19 10:50:22;;;;;;;33.47;12.20;;;;;;;1.14;100.00;101332.06;5006875;28;20571;-79
2022/11/19 10:52:55;;;;;;;33.22;12.45;;;;;;;1.18;100.00;101326.19;5007339;28;20508;-80
2022/11/19 10:55:25;;;;;;;36.92;14.02;;;;;;;1.15;100.00;101326.16;5007551;28;20022;-79
2022/11/19 10:58:07;;;;;;;38.65;14.93;;;;;;;1.20;100.00;101322.00;5006310;28;20026;-79
2022/11/19 11:00:34;;;;;;;36.38;13.95;;;;;;;1.27;100.00;101318.75;5004040;28;20013;-79
2022/11/19 11:03:03;;;;;;;31.80;12.63;;;;;;;1.28;100.00;101323.03;5007079;28;20033;-79
2022/11/19 11:05:29;;;;;;;37.25;13.73;;;;;;;1.28;100.00;101317.91;5007649;28;20538;-79
2022/11/19 11:08:01;;;;;;;31.98;12.55;;;;;;;1.35;100.00;101324.88;5005394;28;20045;-79
2022/11/19 11:10:35;;;;;;;32.75;12.57;;;;;;;1.39;100.00;101321.56;5003251;28;20034;-79
2022/11/19 11:16:10;;;;;;;34.13;12.35;;;;;;;1.25;100.00;101324.63;5005820;28;20139;-79
2022/11/19 11:18:40;;;;;;;28.83;11.82;;;;;;;1.21;100.00;101323.72;5007213;28;20014;-80
2022/11/19 11:21:11;;;;;;;28.95;11.63;;;;;;;1.19;98.99;101321.13;5006846;28;20036;-79
2022/11/19 11:23:48;;;;;;;33.60;11.85;;;;;;;1.16;100.00;101327.88;4989309;28;20053;-79
2022/11/19 11:26:19;;;;;;;33.92;13.90;;;;;;;1.20;100.00;101319.44;5006988;28;20038;-79
2022/11/19 11:29:00;;;;;;;29.05;12.38;;;;;;;1.27;100.00;101323.00;5006790;28;20033;-80
2022/11/19 11:31:34;;;;;;;27.15;10.77;;;;;;;1.25;100.00;101312.72;5007012;28;20492;-80
2022/11/19 11:34:01;;;;;;;32.15;12.52;;;;;;;1.23;100.00;101326.31;5008679;28;20037;-79
2022/11/19 11:36:28;;;;;;;28.20;11.27;;;;;;;1.23;99.35;101308.44;5003067;28;20034;-79